createdAt,value
2023-05-13T00:01:57.850Z,102225.38
2023-05-13T00:04:24.329Z,102224.94
2023-05-13T00:06:50.767Z,102216.19
2023-05-13T00:09:17.380Z,102221.53
2023-05-13T00:11:43.812Z,102218.25
2023-05-13T00:14:11.033Z,102214.66
2023-05-13T00:16:37.597Z,102220.78
2023-05-13T00:19:04.197Z,102221.78
2023-05-13T00:21:32.115Z,102227.13
2023-05-13T00:23:58.701Z,102223.97
2023-05-13T00:26:25.574Z,102218.84
2023-05-13T00:28:52.015Z,102219.19
2023-05-13T00:31:18.671Z,102217.97
2023-05-13T00:33:45.177Z,102213.31
2023-05-13T00:36:12.579Z,102218.41
2023-05-13T00:38:38.964Z,102212.19
2023-05-13T00:41:05.900Z,102222.25
2023-05-13T00:43:32.300Z,102215.25
2023-05-13T00:45:59.722Z,102215.91
2023-05-13T00:48:26.930Z,102219.31
2023-05-13T00:50:53.442Z,102218.41
2023-05-13T00:53:19.957Z,102218.31
2023-05-13T00:55:46.609Z,102216.16
2023-05-13T00:58:13.861Z,102221.03
2023-05-13T01:01:09.340Z,102217.72
2023-05-13T01:03:50.496Z,102215.72
2023-05-13T01:06:23.913Z,102213.06
2023-05-13T01:08:59.134Z,102216.03
2023-05-13T01:11:32.574Z,102217.03
2023-05-13T01:14:06.877Z,102213.38
2023-05-13T01:17:15.709Z,102210.22
2023-05-13T01:19:45.265Z,102211.25
2023-05-13T01:22:11.772Z,102209.97
2023-05-13T01:24:38.621Z,102204.53
2023-05-13T01:27:06.205Z,102205.31
2023-05-13T01:29:32.913Z,102207.25
2023-05-13T01:32:00.916Z,102210.31
2023-05-13T01:34:27.709Z,102207.94
2023-05-13T01:36:54.446Z,102207.16
2023-05-13T01:39:21.575Z,102205.91
2023-05-13T01:41:48.491Z,102210.41
2023-05-13T01:44:15.807Z,102212.19
2023-05-13T01:46:45.652Z,102212.06
2023-05-13T01:49:12.399Z,102206.97
2023-05-13T01:51:40.296Z,102203.31
2023-05-13T01:54:07.112Z,102206.28
2023-05-13T01:56:33.766Z,102211.09
2023-05-13T01:59:00.253Z,102202.03
2023-05-13T02:01:27.085Z,102208.13
2023-05-13T02:03:53.745Z,102215.72
2023-05-13T02:06:20.361Z,102209.53
2023-05-13T02:08:47.109Z,102206.25
2023-05-13T02:11:13.559Z,102203.41
2023-05-13T02:13:40.053Z,102211.41
2023-05-13T02:16:06.542Z,102206.97
2023-05-13T02:18:33.296Z,102210.56
2023-05-13T02:20:59.749Z,102213.50
2023-05-13T02:23:26.472Z,102212.69
2023-05-13T02:25:53.087Z,102221.63
2023-05-13T02:28:19.706Z,102209.97
2023-05-13T02:30:46.284Z,102215.88
2023-05-13T02:33:12.838Z,102215.38
2023-05-13T02:35:39.333Z,102216.53
2023-05-13T02:38:05.955Z,102219.56
2023-05-13T02:40:32.399Z,102214.81
2023-05-13T02:42:58.814Z,102215.47
2023-05-13T02:45:25.675Z,102208.00
2023-05-13T02:47:52.422Z,102210.53
2023-05-13T02:50:19.236Z,102209.31
2023-05-13T02:52:45.857Z,102209.16
2023-05-13T02:55:12.568Z,102207.44
2023-05-13T02:57:39.291Z,102212.41
2023-05-13T03:00:06.522Z,102207.94
2023-05-13T03:02:34.013Z,102205.09
2023-05-13T03:05:00.760Z,102201.13
2023-05-13T03:07:27.210Z,102213.75
2023-05-13T03:09:53.673Z,102201.97
2023-05-13T03:12:20.300Z,102211.56
2023-05-13T03:14:46.720Z,102211.09
2023-05-13T03:17:13.283Z,102216.50
2023-05-13T03:19:39.877Z,102207.78
2023-05-13T03:22:06.397Z,102210.03
2023-05-13T03:24:33.099Z,102211.94
2023-05-13T03:26:59.749Z,102210.03
2023-05-13T03:29:26.340Z,102209.09
2023-05-13T03:31:53.326Z,102215.94
2023-05-13T03:34:19.869Z,102220.28
2023-05-13T03:36:46.362Z,102216.41
2023-05-13T03:39:12.789Z,102219.94
2023-05-13T03:41:39.513Z,102223.78
2023-05-13T03:44:06.265Z,102227.88
2023-05-13T03:46:34.060Z,102226.16
2023-05-13T03:49:00.595Z,102224.88
2023-05-13T03:51:26.957Z,102226.69
2023-05-13T03:53:53.450Z,102229.38
2023-05-13T03:56:20.028Z,102220.78
2023-05-13T03:58:46.439Z,102224.94
2023-05-13T04:01:12.924Z,102226.84
2023-05-13T04:03:39.355Z,102221.75
2023-05-13T04:06:06.151Z,102229.09
2023-05-13T04:08:32.633Z,102229.09
2023-05-13T04:10:58.986Z,102233.72
2023-05-13T04:13:25.400Z,102232.28
2023-05-13T04:15:51.997Z,102236.09
2023-05-13T04:18:18.377Z,102229.88
2023-05-13T04:20:44.815Z,102232.91
2023-05-13T04:23:11.261Z,102233.38
2023-05-13T04:25:37.906Z,102237.06
2023-05-13T04:28:04.801Z,102233.84
2023-05-13T04:30:31.230Z,102234.31
2023-05-13T04:32:57.780Z,102239.88
2023-05-13T04:35:24.608Z,102240.50
2023-05-13T04:37:51.044Z,102245.75
2023-05-13T04:40:17.783Z,102246.38
2023-05-13T04:42:44.237Z,102239.66
2023-05-13T04:45:11.034Z,102242.50
2023-05-13T04:47:38.220Z,102252.72
2023-05-13T04:50:05.219Z,102254.78
2023-05-13T04:52:32.075Z,102250.72
2023-05-13T04:54:58.531Z,102250.88
2023-05-13T04:57:27.956Z,102256.91
2023-05-13T04:59:54.514Z,102255.28
2023-05-13T05:02:20.906Z,102250.44
2023-05-13T05:04:49.272Z,102255.03
2023-05-13T05:07:15.868Z,102257.66
2023-05-13T05:09:42.366Z,102264.78
2023-05-13T05:12:10.627Z,102270.28
2023-05-13T05:14:38.167Z,102262.50
2023-05-13T05:17:04.846Z,102264.94
2023-05-13T05:19:31.522Z,102271.69
2023-05-13T05:21:58.428Z,102265.69
2023-05-13T05:24:24.866Z,102263.69
2023-05-13T05:26:51.400Z,102260.97
2023-05-13T05:29:17.909Z,102260.56
2023-05-13T05:31:44.624Z,102259.06
2023-05-13T05:34:11.464Z,102256.25
2023-05-13T05:36:38.424Z,102265.41
2023-05-13T05:39:05.212Z,102273.81
2023-05-13T05:41:32.558Z,102262.16
2023-05-13T05:44:08.077Z,102262.50
2023-05-13T05:46:34.819Z,102267.63
2023-05-13T05:49:03.480Z,102263.16
2023-05-13T05:51:30.089Z,102265.22
2023-05-13T05:53:56.492Z,102272.41
2023-05-13T05:56:22.943Z,102275.34
2023-05-13T05:58:49.367Z,102283.13
2023-05-13T06:01:22.459Z,102273.91
2023-05-13T06:03:49.652Z,102274.59
2023-05-13T06:06:17.354Z,102286.75
2023-05-13T06:08:43.866Z,102278.38
2023-05-13T06:11:10.238Z,102275.38
2023-05-13T06:13:36.862Z,102272.34
2023-05-13T06:16:04.006Z,102277.09
2023-05-13T06:18:30.680Z,102277.63
2023-05-13T06:20:57.120Z,102275.41
2023-05-13T06:23:23.547Z,102275.06
2023-05-13T06:25:50.075Z,102270.31
2023-05-13T06:28:19.403Z,102275.38
2023-05-13T06:30:46.110Z,102264.84
2023-05-13T06:33:12.855Z,102263.31
2023-05-13T06:35:39.696Z,102269.94
2023-05-13T06:38:06.116Z,102269.91
2023-05-13T06:40:33.174Z,102269.84
2023-05-13T06:42:59.651Z,102267.53
2023-05-13T06:45:26.301Z,102267.28
2023-05-13T06:47:53.637Z,102277.63
2023-05-13T06:50:20.864Z,102274.16
2023-05-13T06:52:47.761Z,102270.53
2023-05-13T06:55:14.970Z,102265.75
2023-05-13T06:57:43.829Z,102274.31
2023-05-13T07:00:10.801Z,102265.59
2023-05-13T07:02:37.444Z,102262.88
2023-05-13T07:05:04.113Z,102267.81
2023-05-13T07:07:30.796Z,102275.38
2023-05-13T07:09:57.181Z,102272.72
2023-05-13T07:12:23.983Z,102275.63
2023-05-13T07:14:50.585Z,102272.06
2023-05-13T07:17:17.486Z,102269.03
2023-05-13T07:19:44.121Z,102269.47
2023-05-13T07:22:11.394Z,102270.16
2023-05-13T07:24:37.820Z,102272.19
2023-05-13T07:27:04.596Z,102266.91
2023-05-13T07:29:32.379Z,102266.03
2023-05-13T07:32:03.622Z,102269.09
2023-05-13T07:34:30.119Z,102270.56
2023-05-13T07:36:56.612Z,102270.53
2023-05-13T07:39:23.017Z,102262.94
2023-05-13T07:41:50.094Z,102270.69
2023-05-13T07:44:16.509Z,102277.50
2023-05-13T07:46:42.943Z,102272.53
2023-05-13T07:49:09.514Z,102273.13
2023-05-13T07:51:36.372Z,102266.50
2023-05-13T07:54:02.799Z,102265.13
2023-05-13T07:56:29.939Z,102268.34
2023-05-13T07:58:56.916Z,102263.66
2023-05-13T08:01:23.654Z,102267.47
2023-05-13T08:03:50.142Z,102269.03
2023-05-13T08:06:16.637Z,102268.19
2023-05-13T08:08:43.189Z,102274.00
2023-05-13T08:11:09.605Z,102275.19
2023-05-13T08:13:36.132Z,102272.81
2023-05-13T08:16:03.611Z,102270.03
2023-05-13T08:18:30.452Z,102276.41
2023-05-13T08:20:56.929Z,102259.78
2023-05-13T08:23:36.497Z,102255.84
2023-05-13T08:26:10.301Z,102267.19
2023-05-13T08:28:36.711Z,102271.28
2023-05-13T08:31:03.465Z,102263.03
2023-05-13T08:33:30.617Z,102261.72
2023-05-13T08:35:58.276Z,102262.19
2023-05-13T08:38:24.701Z,102268.41
2023-05-13T08:40:51.450Z,102257.91
2023-05-13T08:43:19.940Z,102264.72
2023-05-13T08:45:47.858Z,102265.06
2023-05-13T08:48:16.402Z,102268.59
2023-05-13T08:50:43.107Z,102266.31
2023-05-13T08:53:12.292Z,102260.69
2023-05-13T08:55:40.545Z,102262.03
2023-05-13T08:58:07.507Z,102264.88
2023-05-13T09:00:37.317Z,102264.75
2023-05-13T09:03:04.183Z,102267.25
2023-05-13T09:05:31.863Z,102266.75
2023-05-13T09:07:58.899Z,102263.34
2023-05-13T09:10:25.399Z,102259.75
2023-05-13T09:12:55.493Z,102256.50
2023-05-13T09:15:24.707Z,102265.13
2023-05-13T09:18:03.374Z,102251.19
2023-05-13T09:20:30.465Z,102255.78
2023-05-13T09:23:08.365Z,102260.06
2023-05-13T09:25:35.242Z,102254.00
2023-05-13T09:28:07.666Z,102258.78
2023-05-13T09:30:40.516Z,102256.22
2023-05-13T09:33:15.258Z,102257.16
2023-05-13T09:35:49.414Z,102253.28
2023-05-13T09:38:17.402Z,102255.78
2023-05-13T09:40:52.114Z,102259.38
2023-05-13T09:43:22.680Z,102257.59
2023-05-13T09:45:56.684Z,102254.16
2023-05-13T09:48:25.948Z,102255.22
2023-05-13T09:50:53.231Z,102257.44
2023-05-13T09:53:22.380Z,102246.28
2023-05-13T09:55:50.910Z,102249.84
2023-05-13T09:58:19.061Z,102249.22
2023-05-13T10:00:46.641Z,102252.22
2023-05-13T10:03:14.345Z,102250.91
2023-05-13T10:05:42.126Z,102254.09
2023-05-13T10:08:13.833Z,102248.53
2023-05-13T10:10:42.348Z,102249.16
2023-05-13T10:13:11.197Z,102252.34
2023-05-13T10:15:48.116Z,102238.72
2023-05-13T10:18:15.660Z,102237.72
2023-05-13T10:20:43.141Z,102244.66
2023-05-13T10:23:11.226Z,102235.28
2023-05-13T10:25:38.304Z,102233.81
2023-05-13T10:28:05.507Z,102230.50
2023-05-13T10:30:33.903Z,102221.97
2023-05-13T10:33:01.579Z,102224.28
2023-05-13T10:35:37.108Z,102222.16
2023-05-13T10:38:23.281Z,102220.94
2023-05-13T10:40:59.091Z,102225.78
2023-05-13T10:43:30.235Z,102225.88
2023-05-13T10:46:08.550Z,102223.09
2023-05-13T10:48:39.852Z,102216.34
2023-05-13T10:51:08.239Z,102214.56
2023-05-13T10:53:46.564Z,102211.94
2023-05-13T10:56:13.696Z,102211.31
2023-05-13T10:58:40.200Z,102202.28
2023-05-13T11:01:15.782Z,102206.25
2023-05-13T11:03:52.159Z,102200.66
2023-05-13T11:06:21.397Z,102199.59
2023-05-13T11:08:50.387Z,102198.06
2023-05-13T11:11:23.409Z,102198.38
2023-05-13T11:13:51.315Z,102196.22
2023-05-13T11:16:18.689Z,102190.47
2023-05-13T11:18:45.458Z,102199.44
2023-05-13T11:21:12.017Z,102189.69
2023-05-13T11:23:58.101Z,102196.69
2023-05-13T11:26:24.687Z,102190.47
2023-05-13T11:29:05.368Z,102192.34
2023-05-13T11:31:53.214Z,102186.97
2023-05-13T11:34:20.440Z,102189.75
2023-05-13T11:36:52.909Z,102182.75
2023-05-13T11:39:21.477Z,102183.91
2023-05-13T11:41:51.993Z,102186.03
2023-05-13T11:44:20.724Z,102188.22
2023-05-13T11:47:06.100Z,102171.19
2023-05-13T11:49:38.993Z,102176.22
2023-05-13T11:52:10.648Z,102174.13
2023-05-13T11:54:43.993Z,102161.94
2023-05-13T11:57:21.440Z,102165.38
2023-05-13T11:59:53.070Z,102164.94
2023-05-13T12:02:25.914Z,102169.41
2023-05-13T12:04:53.287Z,102168.00
2023-05-13T12:07:24.630Z,102162.16
2023-05-13T12:09:52.072Z,102166.78
2023-05-13T12:12:19.863Z,102163.41
2023-05-13T12:14:47.380Z,102155.19
2023-05-13T12:17:14.577Z,102151.59
2023-05-13T12:19:41.213Z,102144.44
2023-05-13T12:22:08.295Z,102156.38
2023-05-13T12:24:42.450Z,102148.66
2023-05-13T12:27:11.580Z,102152.63
2023-05-13T12:29:42.435Z,102156.78
2023-05-13T12:32:09.468Z,102161.91
2023-05-13T12:34:36.020Z,102153.69
2023-05-13T12:37:13.449Z,102148.03
2023-05-13T12:39:41.638Z,102145.84
2023-05-13T12:42:18.464Z,102151.16
2023-05-13T12:44:45.962Z,102153.84
2023-05-13T12:47:16.895Z,102146.84
2023-05-13T12:49:58.820Z,102152.56
2023-05-13T12:52:33.403Z,102149.69
2023-05-13T12:54:59.795Z,102145.59
2023-05-13T12:57:26.139Z,102141.28
2023-05-13T12:59:52.512Z,102148.38
2023-05-13T13:02:18.903Z,102144.72
2023-05-13T13:04:45.419Z,102136.09
2023-05-13T13:07:14.600Z,102137.78
2023-05-13T13:09:41.173Z,102141.63
2023-05-13T13:12:07.714Z,102138.53
2023-05-13T13:14:34.242Z,102133.91
2023-05-13T13:17:00.859Z,102138.22
2023-05-13T13:19:27.299Z,102146.78
2023-05-13T13:21:53.967Z,102146.94
2023-05-13T13:24:20.414Z,102145.03
2023-05-13T13:26:46.943Z,102136.94
2023-05-13T13:29:13.336Z,102137.22
2023-05-13T13:31:40.100Z,102142.88
2023-05-13T13:34:06.956Z,102138.22
2023-05-13T13:36:33.535Z,102137.16
2023-05-13T13:39:00.167Z,102129.63
2023-05-13T13:41:26.649Z,102119.97
2023-05-13T13:43:53.097Z,102117.50
2023-05-13T13:46:19.921Z,102119.97
2023-05-13T13:48:46.569Z,102110.75
2023-05-13T13:51:13.013Z,102127.19
2023-05-13T13:53:39.752Z,102113.56
2023-05-13T13:56:06.899Z,102118.28
2023-05-13T13:58:33.459Z,102118.16
2023-05-13T14:00:59.936Z,102112.16
2023-05-13T14:03:26.620Z,102109.13
2023-05-13T14:05:55.113Z,102106.56
2023-05-13T14:08:21.556Z,102107.94
2023-05-13T14:10:48.178Z,102112.53
2023-05-13T14:13:14.610Z,102113.25
2023-05-13T14:15:41.082Z,102106.47
2023-05-13T14:18:10.437Z,102117.50
2023-05-13T14:20:38.400Z,102104.50
2023-05-13T14:23:05.541Z,102112.31
2023-05-13T14:25:32.048Z,102105.16
2023-05-13T14:27:58.527Z,102098.88
2023-05-13T14:30:27.727Z,102099.44
2023-05-13T14:32:54.565Z,102094.25
2023-05-13T14:35:21.031Z,102097.69
2023-05-13T14:37:47.564Z,102098.50
2023-05-13T14:40:13.997Z,102091.84
2023-05-13T14:42:40.570Z,102097.75
2023-05-13T14:45:07.680Z,102097.81
2023-05-13T14:47:34.598Z,102090.41
2023-05-13T14:50:01.435Z,102093.47
2023-05-13T14:52:27.871Z,102088.72
2023-05-13T14:54:54.476Z,102085.09
2023-05-13T14:57:21.469Z,102083.47
2023-05-13T14:59:48.037Z,102089.06
2023-05-13T15:02:14.827Z,102077.59
2023-05-13T15:04:41.336Z,102082.09
2023-05-13T15:07:07.744Z,102076.22
2023-05-13T15:09:34.218Z,102083.88
2023-05-13T15:12:00.849Z,102077.25
2023-05-13T15:14:27.356Z,102070.00
2023-05-13T15:16:53.964Z,102071.63
2023-05-13T15:19:20.745Z,102067.31
2023-05-13T15:21:47.147Z,102069.00
2023-05-13T15:24:13.601Z,102066.19
2023-05-13T15:26:40.177Z,102068.84
2023-05-13T15:29:06.591Z,102072.16
2023-05-13T15:31:33.283Z,102072.03
2023-05-13T15:33:59.959Z,102066.16
2023-05-13T15:36:26.319Z,102062.75
2023-05-13T15:38:52.744Z,102061.13
2023-05-13T15:41:19.348Z,102057.41
2023-05-13T15:43:45.768Z,102051.94
2023-05-13T15:46:12.405Z,102050.66
2023-05-13T15:48:46.471Z,102047.34
2023-05-13T15:51:19.219Z,102049.16
2023-05-13T15:53:45.907Z,102060.06
2023-05-13T15:56:13.373Z,102048.81
2023-05-13T15:58:40.081Z,102061.63
2023-05-13T16:01:06.492Z,102056.25
2023-05-13T16:03:33.153Z,102035.75
2023-05-13T16:05:59.874Z,102044.47
2023-05-13T16:08:26.659Z,102037.66
2023-05-13T16:10:53.155Z,102037.00
2023-05-13T16:13:20.348Z,102032.41
2023-05-13T16:15:47.035Z,102029.75
2023-05-13T16:18:17.554Z,102026.63
2023-05-13T16:20:53.238Z,102031.41
2023-05-13T16:23:19.625Z,102026.44
2023-05-13T16:25:46.777Z,102029.34
2023-05-13T16:28:13.198Z,102036.63
2023-05-13T16:30:39.901Z,102037.94
2023-05-13T16:33:08.123Z,102039.38
2023-05-13T16:35:34.867Z,102045.38
2023-05-13T16:38:01.563Z,102040.75
2023-05-13T16:40:28.004Z,102031.53
2023-05-13T16:42:56.228Z,102039.44
2023-05-13T16:45:24.392Z,102048.44
2023-05-13T16:47:51.209Z,102042.97
2023-05-13T16:50:17.878Z,102038.75
2023-05-13T16:52:44.383Z,102038.59
2023-05-13T16:55:10.885Z,102035.81
2023-05-13T16:57:37.307Z,102037.06
2023-05-13T17:00:04.176Z,102040.47
2023-05-13T17:02:30.859Z,102036.59
2023-05-13T17:04:57.431Z,102034.41
2023-05-13T17:07:24.042Z,102035.72
2023-05-13T17:09:50.644Z,102028.66
2023-05-13T17:12:17.144Z,102031.13
2023-05-13T17:14:43.592Z,102028.72
2023-05-13T17:17:10.302Z,102033.09
2023-05-13T17:19:36.898Z,102044.50
2023-05-13T17:22:03.448Z,102035.94
2023-05-13T17:24:31.791Z,102032.06
2023-05-13T17:26:58.254Z,102029.41
2023-05-13T17:29:25.938Z,102034.97
2023-05-13T17:31:52.795Z,102039.00
2023-05-13T17:34:19.888Z,102035.56
2023-05-13T17:36:48.565Z,102024.22
2023-05-13T17:39:16.412Z,102037.34
2023-05-13T17:41:43.010Z,102030.75
2023-05-13T17:44:09.444Z,102035.97
2023-05-13T17:46:36.494Z,102032.53
2023-05-13T17:49:03.971Z,102046.00
2023-05-13T17:51:30.746Z,102031.59
2023-05-13T17:53:57.134Z,102034.03
2023-05-13T17:56:24.898Z,102041.53
2023-05-13T17:58:51.355Z,102043.13
2023-05-13T18:01:19.714Z,102048.69
2023-05-13T18:03:46.167Z,102039.69
2023-05-13T18:06:12.605Z,102042.06
2023-05-13T18:08:39.111Z,102045.25
2023-05-13T18:11:05.647Z,102048.06
2023-05-13T18:13:32.541Z,102048.09
2023-05-13T18:15:59.144Z,102046.16
2023-05-13T18:18:25.905Z,102044.25
2023-05-13T18:20:53.049Z,102048.25
2023-05-13T18:23:19.416Z,102051.44
2023-05-13T18:25:55.025Z,102048.69
2023-05-13T18:28:22.236Z,102055.41
2023-05-13T18:30:48.777Z,102055.41
2023-05-13T18:33:15.220Z,102061.69
2023-05-13T18:35:41.617Z,102056.97
2023-05-13T18:38:08.121Z,102060.91
2023-05-13T18:40:34.691Z,102066.34
2023-05-13T18:43:01.298Z,102077.34
2023-05-13T18:45:27.861Z,102083.97
2023-05-13T18:47:54.307Z,102072.56
2023-05-13T18:50:21.646Z,102084.72
2023-05-13T18:52:48.350Z,102083.13
2023-05-13T18:55:14.744Z,102080.31
2023-05-13T18:57:41.553Z,102084.63
2023-05-13T19:00:08.508Z,102085.00
2023-05-13T19:02:35.226Z,102084.59
2023-05-13T19:05:01.798Z,102090.78
2023-05-13T19:07:28.150Z,102098.19
2023-05-13T19:09:54.625Z,102091.88
2023-05-13T19:12:21.172Z,102095.34
2023-05-13T19:14:47.665Z,102095.28
2023-05-13T19:17:14.438Z,102097.19
2023-05-13T19:19:42.181Z,102097.91
2023-05-13T19:22:08.768Z,102101.38
2023-05-13T19:24:35.789Z,102104.44
2023-05-13T19:27:02.899Z,102104.38
2023-05-13T19:29:29.324Z,102109.78
2023-05-13T19:31:55.736Z,102110.44
2023-05-13T19:34:22.309Z,102109.97
2023-05-13T19:36:48.915Z,102111.06
2023-05-13T19:39:15.576Z,102111.72
2023-05-13T19:41:42.091Z,102109.31
2023-05-13T19:44:08.498Z,102110.41
2023-05-13T19:46:35.539Z,102114.28
2023-05-13T19:49:03.259Z,102118.50
2023-05-13T19:51:29.977Z,102111.84
2023-05-13T19:53:56.901Z,102118.38
2023-05-13T19:56:23.598Z,102119.84
2023-05-13T19:58:50.298Z,102116.28
2023-05-13T20:01:17.026Z,102116.63
2023-05-13T20:03:43.752Z,102123.94
2023-05-13T20:06:10.242Z,102115.25
2023-05-13T20:08:38.750Z,102125.63
2023-05-13T20:11:05.291Z,102129.50
2023-05-13T20:13:32.602Z,102130.63
2023-05-13T20:15:59.058Z,102139.91
2023-05-13T20:18:25.714Z,102137.13
2023-05-13T20:20:53.603Z,102140.16
2023-05-13T20:23:20.184Z,102140.09
2023-05-13T20:25:47.163Z,102138.81
2023-05-13T20:28:13.647Z,102136.41
2023-05-13T20:30:43.307Z,102143.34
2023-05-13T20:33:10.021Z,102138.97
2023-05-13T20:35:40.264Z,102142.78
2023-05-13T20:38:07.020Z,102139.16
2023-05-13T20:40:33.660Z,102147.31
2023-05-13T20:43:01.658Z,102146.78
2023-05-13T20:45:28.638Z,102148.25
2023-05-13T20:47:59.384Z,102148.25
2023-05-13T20:50:28.107Z,102145.81
2023-05-13T20:52:55.302Z,102146.19
2023-05-13T20:55:22.305Z,102141.06
2023-05-13T20:57:50.640Z,102150.81
2023-05-13T21:00:17.520Z,102142.16
2023-05-13T21:02:44.269Z,102140.44
2023-05-13T21:05:11.024Z,102140.78
2023-05-13T21:07:37.541Z,102152.44
2023-05-13T21:10:04.579Z,102147.22
2023-05-13T21:12:32.074Z,102139.72
2023-05-13T21:14:58.748Z,102145.53
2023-05-13T21:17:26.470Z,102140.72
2023-05-13T21:19:53.082Z,102147.66
2023-05-13T21:22:19.643Z,102142.03
2023-05-13T21:24:46.870Z,102137.72
2023-05-13T21:27:13.402Z,102142.75
2023-05-13T21:29:39.786Z,102134.84
2023-05-13T21:32:06.513Z,102144.53
2023-05-13T21:34:33.000Z,102139.81
2023-05-13T21:36:59.465Z,102147.47
2023-05-13T21:39:25.856Z,102150.94
2023-05-13T21:41:52.500Z,102144.31
2023-05-13T21:44:18.974Z,102143.47
2023-05-13T21:46:45.589Z,102143.03
2023-05-13T21:49:12.254Z,102139.88
2023-05-13T21:51:39.374Z,102141.78
2023-05-13T21:54:05.883Z,102141.00
2023-05-13T21:56:32.418Z,102140.94
2023-05-13T21:58:58.991Z,102133.81
2023-05-13T22:01:25.788Z,102135.31
2023-05-13T22:03:52.352Z,102140.25
2023-05-13T22:06:18.922Z,102141.34
2023-05-13T22:08:45.690Z,102141.25
2023-05-13T22:11:12.595Z,102137.28
2023-05-13T22:13:39.345Z,102136.78
2023-05-13T22:16:09.094Z,102144.34
2023-05-13T22:18:35.734Z,102150.25
2023-05-13T22:21:02.595Z,102144.25
2023-05-13T22:23:29.308Z,102149.63
2023-05-13T22:25:55.906Z,102144.78
2023-05-13T22:28:22.527Z,102137.69
2023-05-13T22:30:52.137Z,102139.84
2023-05-13T22:33:18.969Z,102135.13
2023-05-13T22:35:45.517Z,102129.94
2023-05-13T22:38:11.930Z,102129.47
2023-05-13T22:40:38.385Z,102131.66
2023-05-13T22:43:04.810Z,102130.78
2023-05-13T22:45:31.413Z,102123.75
2023-05-13T22:47:57.854Z,102124.09
2023-05-13T22:50:24.737Z,102129.53
2023-05-13T22:52:51.961Z,102126.47
2023-05-13T22:55:18.316Z,102123.66
2023-05-13T22:57:44.713Z,102116.16
2023-05-13T23:00:11.963Z,102120.75
2023-05-13T23:02:38.463Z,102121.09
2023-05-13T23:05:05.579Z,102118.63
2023-05-13T23:07:31.972Z,102118.09
2023-05-13T23:09:58.472Z,102124.59
2023-05-13T23:12:24.997Z,102124.06
2023-05-13T23:14:51.670Z,102129.31
2023-05-13T23:17:18.110Z,102127.19
2023-05-13T23:19:44.663Z,102131.03
2023-05-13T23:22:11.352Z,102127.06
2023-05-13T23:24:37.782Z,102126.97
2023-05-13T23:27:04.407Z,102128.44
2023-05-13T23:29:30.994Z,102123.47
2023-05-13T23:31:57.648Z,102114.75
2023-05-13T23:34:24.213Z,102117.63
2023-05-13T23:36:50.876Z,102119.00
2023-05-13T23:39:17.344Z,102119.00
2023-05-13T23:41:43.944Z,102108.81
2023-05-13T23:44:12.014Z,102115.38
2023-05-13T23:46:38.504Z,102120.03
2023-05-13T23:49:05.017Z,102111.66
2023-05-13T23:51:32.019Z,102111.34
2023-05-13T23:53:58.720Z,102113.34
2023-05-13T23:56:25.533Z,102103.84
2023-05-13T23:58:51.903Z,102099.44
